sensor_id;sensor_type;location;lat;lon;timestamp;pressure;altitude;pressure_sealevel;temperature;humidity
58775;BME280;44545;47.480;19.024;2023-02-02T03:46:00;99910.53;;;2.76;100.00
58775;BME280;44545;47.480;19.024;2023-02-02T03:49:04;99910.53;;;2.76;100.00
58775;BME280;44545;47.480;19.024;2023-02-02T03:52:06;99916.94;;;2.15;100.00
58775;BME280;44545;47.480;19.024;2023-02-02T03:55:08;99906.25;;;2.11;100.00
58775;BME280;44545;47.480;19.024;2023-02-02T03:58:10;99908.94;;;2.12;100.00
58775;BME280;44545;47.480;19.024;2023-02-02T04:01:13;99902.94;;;2.02;100.00
58775;BME280;44545;47.480;19.024;2023-02-02T04:04:16;99895.00;;;1.99;100.00
58775;BME280;44545;47.480;19.024;2023-02-02T04:07:18;99896.69;;;1.98;100.00
58775;BME280;44545;47.480;19.024;2023-02-02T04:10:20;99887.44;;;1.90;100.00
58775;BME280;44545;47.480;19.024;2023-02-02T04:13:23;99865.88;;;1.88;100.00
58775;BME280;44545;47.480;19.024;2023-02-02T04:16:25;99874.09;;;1.84;100.00
58775;BME280;44545;47.480;19.024;2023-02-02T04:19:27;99862.91;;;1.83;100.00
58775;BME280;44545;47.480;19.024;2023-02-02T04:22:30;99852.75;;;1.85;100.00
58775;BME280;44545;47.480;19.024;2023-02-02T04:25:32;99869.22;;;1.77;100.00
58775;BME280;44545;47.480;19.024;2023-02-02T04:28:35;99874.53;;;1.68;100.00
58775;BME280;44545;47.480;19.024;2023-02-02T04:31:37;99879.78;;;1.69;100.00
58775;BME280;44545;47.480;19.024;2023-02-02T04:34:40;99868.09;;;1.73;100.00
58775;BME280;44545;47.480;19.024;2023-02-02T04:37:42;99872.63;;;1.65;100.00
58775;BME280;44545;47.480;19.024;2023-02-02T04:40:46;99873.66;;;1.67;100.00
58775;BME280;44545;47.480;19.024;2023-02-02T04:43:49;99877.63;;;1.64;100.00
58775;BME280;44545;47.480;19.024;2023-02-02T04:46:51;99863.41;;;1.57;100.00
58775;BME280;44545;47.480;19.024;2023-02-02T04:49:53;99874.03;;;1.62;100.00
58775;BME280;44545;47.480;19.024;2023-02-02T04:52:56;99875.59;;;1.60;100.00
58775;BME280;44545;47.480;19.024;2023-02-02T04:56:13;99867.25;;;1.62;100.00
58775;BME280;44545;47.480;19.024;2023-02-02T04:59:16;99875.84;;;1.63;100.00
58775;BME280;44545;47.480;19.024;2023-02-02T05:02:18;99868.41;;;1.56;100.00
58775;BME280;44545;47.480;19.024;2023-02-02T05:05:21;99870.19;;;1.57;100.00
58775;BME280;44545;47.480;19.024;2023-02-02T05:08:23;99867.91;;;1.49;100.00
58775;BME280;44545;47.480;19.024;2023-02-02T05:11:25;99852.22;;;1.46;100.00
58775;BME280;44545;47.480;19.024;2023-02-02T05:14:27;99871.28;;;1.38;100.00
58775;BME280;44545;47.480;19.024;2023-02-02T05:17:30;99877.03;;;1.46;100.00
58775;BME280;44545;47.480;19.024;2023-02-02T05:20:33;99873.44;;;1.44;100.00
58775;BME280;44545;47.480;19.024;2023-02-02T05:23:35;99887.06;;;1.43;100.00
58775;BME280;44545;47.480;19.024;2023-02-02T05:26:37;99891.31;;;1.42;100.00
58775;BME280;44545;47.480;19.024;2023-02-02T05:29:40;99905.56;;;1.39;100.00
58775;BME280;44545;47.480;19.024;2023-02-02T05:32:42;99939.34;;;1.33;100.00
58775;BME280;44545;47.480;19.024;2023-02-02T05:35:46;99942.69;;;1.32;100.00
58775;BME280;44545;47.480;19.024;2023-02-02T05:38:48;99940.00;;;1.30;100.00
58775;BME280;44545;47.480;19.024;2023-02-02T05:41:51;99950.41;;;1.42;100.00
58775;BME280;44545;47.480;19.024;2023-02-02T05:44:53;99953.97;;;1.34;100.00
58775;BME280;44545;47.480;19.024;2023-02-02T05:47:56;99957.97;;;1.30;100.00
58775;BME280;44545;47.480;19.024;2023-02-02T05:51:03;99959.25;;;1.25;100.00
58775;BME280;44545;47.480;19.024;2023-02-02T05:54:10;99965.03;;;1.23;100.00
58775;BME280;44545;47.480;19.024;2023-02-02T05:57:12;99971.19;;;1.25;100.00
58775;BME280;44545;47.480;19.024;2023-02-02T06:00:15;99988.13;;;1.13;100.00
58775;BME280;44545;47.480;19.024;2023-02-02T06:03:17;99987.97;;;1.01;100.00
58775;BME280;44545;47.480;19.024;2023-02-02T06:06:20;99979.13;;;0.97;100.00
58775;BME280;44545;47.480;19.024;2023-02-02T06:09:22;99988.91;;;1.01;100.00
58775;BME280;44545;47.480;19.024;2023-02-02T06:12:27;99989.56;;;1.19;100.00
58775;BME280;44545;47.480;19.024;2023-02-02T06:15:29;99979.28;;;1.19;100.00
58775;BME280;44545;47.480;19.024;2023-02-02T06:18:35;99964.78;;;1.20;100.00
58775;BME280;44545;47.480;19.024;2023-02-02T06:21:37;99969.28;;;1.22;100.00
58775;BME280;44545;47.480;19.024;2023-02-02T06:24:39;99959.66;;;1.20;100.00
58775;BME280;44545;47.480;19.024;2023-02-02T06:27:42;99963.75;;;1.18;100.00
58775;BME280;44545;47.480;19.024;2023-02-02T06:30:47;99963.87;;;1.29;100.00
58775;BME280;44545;47.480;19.024;2023-02-02T06:33:55;99966.97;;;1.36;100.00
58775;BME280;44545;47.480;19.024;2023-02-02T06:36:58;99954.00;;;1.44;100.00
58775;BME280;44545;47.480;19.024;2023-02-02T06:40:00;99949.22;;;1.49;100.00
58775;BME280;44545;47.480;19.024;2023-02-02T06:43:02;99951.66;;;1.68;100.00
58775;BME280;44545;47.480;19.024;2023-02-02T06:46:05;99947.53;;;1.70;100.00
58775;BME280;44545;47.480;19.024;2023-02-02T06:49:07;99956.00;;;1.69;100.00
58775;BME280;44545;47.480;19.024;2023-02-02T06:52:10;99952.91;;;1.73;100.00
58775;BME280;44545;47.480;19.024;2023-02-02T06:55:12;99953.03;;;1.74;100.00
58775;BME280;44545;47.480;19.024;2023-02-02T06:58:15;99957.25;;;1.84;100.00
58775;BME280;44545;47.480;19.024;2023-02-02T07:01:17;99954.28;;;1.90;100.00
58775;BME280;44545;47.480;19.024;2023-02-02T07:04:20;99959.94;;;1.96;100.00
58775;BME280;44545;47.480;19.024;2023-02-02T07:07:22;99962.87;;;2.01;100.00
58775;BME280;44545;47.480;19.024;2023-02-02T07:10:25;99973.91;;;2.00;100.00
58775;BME280;44545;47.480;19.024;2023-02-02T07:13:48;99974.19;;;2.03;100.00
58775;BME280;44545;47.480;19.024;2023-02-02T07:16:51;99978.03;;;2.08;100.00
58775;BME280;44545;47.480;19.024;2023-02-02T07:19:53;99988.81;;;2.14;100.00
58775;BME280;44545;47.480;19.024;2023-02-02T07:22:55;99983.16;;;2.18;100.00
58775;BME280;44545;47.480;19.024;2023-02-02T07:26:05;99977.03;;;2.28;100.00
58775;BME280;44545;47.480;19.024;2023-02-02T07:29:11;99989.62;;;2.35;100.00
58775;BME280;44545;47.480;19.024;2023-02-02T07:32:15;100000.94;;;2.37;100.00
58775;BME280;44545;47.480;19.024;2023-02-02T07:35:17;100028.81;;;2.43;100.00
58775;BME280;44545;47.480;19.024;2023-02-02T07:38:20;100032.63;;;2.58;100.00
58775;BME280;44545;47.480;19.024;2023-02-02T07:41:23;100029.19;;;2.79;100.00
58775;BME280;44545;47.480;19.024;2023-02-02T07:44:25;100048.06;;;2.90;99.81
58775;BME280;44545;47.480;19.024;2023-02-02T07:47:27;100056.34;;;3.08;98.69
58775;BME280;44545;47.480;19.024;2023-02-02T07:50:30;100050.09;;;3.38;95.57
58775;BME280;44545;47.480;19.024;2023-02-02T07:53:33;100057.75;;;3.48;93.75
58775;BME280;44545;47.480;19.024;2023-02-02T07:56:36;100056.25;;;3.62;90.54
58775;BME280;44545;47.480;19.024;2023-02-02T07:59:39;100046.12;;;4.11;90.06
58775;BME280;44545;47.480;19.024;2023-02-02T08:02:41;100052.53;;;4.51;86.47
58775;BME280;44545;47.480;19.024;2023-02-02T08:05:44;100046.91;;;5.06;85.21
58775;BME280;44545;47.480;19.024;2023-02-02T08:08:47;100047.44;;;5.25;82.25
58775;BME280;44545;47.480;19.024;2023-02-02T08:11:50;100048.69;;;4.82;82.19
58775;BME280;44545;47.480;19.024;2023-02-02T08:14:52;100048.09;;;4.86;83.68
58775;BME280;44545;47.480;19.024;2023-02-02T08:17:54;100054.81;;;4.95;83.89
58775;BME280;44545;47.480;19.024;2023-02-02T08:20:58;100048.00;;;5.21;83.50
58775;BME280;44545;47.480;19.024;2023-02-02T08:24:01;100050.63;;;5.59;82.54
58775;BME280;44545;47.480;19.024;2023-02-02T08:27:08;100043.78;;;5.85;78.34
58775;BME280;44545;47.480;19.024;2023-02-02T08:30:11;100050.22;;;6.17;76.97
58775;BME280;44545;47.480;19.024;2023-02-02T08:33:13;100047.22;;;6.50;75.93
58775;BME280;44545;47.480;19.024;2023-02-02T08:36:18;100035.56;;;6.84;74.60
58775;BME280;44545;47.480;19.024;2023-02-02T08:39:20;100031.13;;;7.09;70.51
58775;BME280;44545;47.480;19.024;2023-02-02T08:42:23;100037.66;;;6.89;72.37
58775;BME280;44545;47.480;19.024;2023-02-02T08:45:26;100020.25;;;6.73;71.54
58775;BME280;44545;47.480;19.024;2023-02-02T08:48:48;100023.16;;;6.93;70.98
58775;BME280;44545;47.480;19.024;2023-02-02T08:51:50;100020.56;;;7.34;68.69
58775;BME280;44545;47.480;19.024;2023-02-02T08:54:53;100019.31;;;7.43;67.20
58775;BME280;44545;47.480;19.024;2023-02-02T08:57:55;100025.94;;;7.09;68.57
58775;BME280;44545;47.480;19.024;2023-02-02T09:01:12;100040.37;;;7.19;68.61
58775;BME280;44545;47.480;19.024;2023-02-02T09:04:15;100046.25;;;7.16;69.31
58775;BME280;44545;47.480;19.024;2023-02-02T09:07:17;100046.94;;;6.59;69.34
58775;BME280;44545;47.480;19.024;2023-02-02T09:10:22;100038.28;;;6.32;68.63
58775;BME280;44545;47.480;19.024;2023-02-02T09:13:25;100045.94;;;6.57;68.58
58775;BME280;44545;47.480;19.024;2023-02-02T09:16:27;100042.25;;;6.67;70.37
58775;BME280;44545;47.480;19.024;2023-02-02T09:19:30;100038.97;;;6.43;68.67
58775;BME280;44545;47.480;19.024;2023-02-02T09:22:32;100035.97;;;6.63;66.14
58775;BME280;44545;47.480;19.024;2023-02-02T09:25:34;100038.00;;;6.41;66.16
58775;BME280;44545;47.480;19.024;2023-02-02T09:28:40;100046.94;;;6.06;67.00
58775;BME280;44545;47.480;19.024;2023-02-02T09:31:43;100040.53;;;6.01;67.30
58775;BME280;44545;47.480;19.024;2023-02-02T09:34:46;100037.44;;;7.28;64.15
58775;BME280;44545;47.480;19.024;2023-02-02T09:37:49;100044.00;;;8.53;59.99
58775;BME280;44545;47.480;19.024;2023-02-02T09:40:51;100023.25;;;9.66;55.79
58775;BME280;44545;47.480;19.024;2023-02-02T09:47:39;100036.50;;;11.69;48.54
58775;BME280;44545;47.480;19.024;2023-02-02T09:54:03;100052.00;;;9.68;52.39
58775;BME280;44545;47.480;19.024;2023-02-02T09:57:13;100053.97;;;8.92;53.61
58775;BME280;44545;47.480;19.024;2023-02-02T10:00:30;100051.09;;;9.51;52.50
58775;BME280;44545;47.480;19.024;2023-02-02T10:03:53;100051.28;;;10.39;49.27
58775;BME280;44545;47.480;19.024;2023-02-02T10:07:05;100058.91;;;9.51;52.06
58775;BME280;44545;47.480;19.024;2023-02-02T10:10:26;100063.34;;;9.21;53.60
58775;BME280;44545;47.480;19.024;2023-02-02T10:13:32;100071.50;;;9.27;52.79
58775;BME280;44545;47.480;19.024;2023-02-02T10:16:42;100064.16;;;8.42;54.20
58775;BME280;44545;47.480;19.024;2023-02-02T10:19:47;100067.84;;;8.16;56.11
58775;BME280;44545;47.480;19.024;2023-02-02T10:22:53;100062.88;;;8.65;56.29
58775;BME280;44545;47.480;19.024;2023-02-02T10:26:04;100049.09;;;9.80;54.10
58775;BME280;44545;47.480;19.024;2023-02-02T10:32:26;100042.91;;;11.37;48.27
58775;BME280;44545;47.480;19.024;2023-02-02T10:39:09;100039.59;;;10.31;49.45
58775;BME280;44545;47.480;19.024;2023-02-02T10:45:45;100041.44;;;9.99;51.29
58775;BME280;44545;47.480;19.024;2023-02-02T10:48:50;100037.06;;;9.82;52.38
58775;BME280;44545;47.480;19.024;2023-02-02T10:55:13;100046.94;;;10.93;48.56
58775;BME280;44545;47.480;19.024;2023-02-02T10:58:27;100023.03;;;13.30;45.33
58775;BME280;44545;47.480;19.024;2023-02-02T11:01:30;100038.13;;;12.27;46.00
58775;BME280;44545;47.480;19.024;2023-02-02T11:04:32;100044.59;;;11.37;47.82
58775;BME280;44545;47.480;19.024;2023-02-02T11:07:54;100054.78;;;10.57;49.00
58775;BME280;44545;47.480;19.024;2023-02-02T11:10:57;100046.19;;;12.11;47.46
58775;BME280;44545;47.480;19.024;2023-02-02T11:17:17;100044.47;;;13.42;43.14
58775;BME280;44545;47.480;19.024;2023-02-02T11:20:39;100051.41;;;12.74;43.29
58775;BME280;44545;47.480;19.024;2023-02-02T11:23:53;100048.25;;;14.00;42.15
58775;BME280;44545;47.480;19.024;2023-02-02T11:26:59;100056.94;;;13.27;42.59
58775;BME280;44545;47.480;19.024;2023-02-02T11:33:32;100067.22;;;9.60;50.57
58775;BME280;44545;47.480;19.024;2023-02-02T11:36:35;100077.97;;;9.02;52.69
58775;BME280;44545;47.480;19.024;2023-02-02T11:39:40;100071.16;;;8.58;53.11
58775;BME280;44545;47.480;19.024;2023-02-02T11:42:46;100085.56;;;8.38;55.05
58775;BME280;44545;47.480;19.024;2023-02-02T11:45:59;100081.37;;;8.25;55.42
58775;BME280;44545;47.480;19.024;2023-02-02T11:49:10;100093.44;;;7.52;56.67
58775;BME280;44545;47.480;19.024;2023-02-02T11:52:18;100099.22;;;7.48;57.84
58775;BME280;44545;47.480;19.024;2023-02-02T11:55:26;100096.72;;;7.78;57.68
58775;BME280;44545;47.480;19.024;2023-02-02T11:58:56;100100.03;;;7.34;58.59
58775;BME280;44545;47.480;19.024;2023-02-02T12:08:24;100098.53;;;6.96;61.33
58775;BME280;44545;47.480;19.024;2023-02-02T12:24:57;100096.62;;;6.40;63.70
58775;BME280;44545;47.480;19.024;2023-02-02T12:35:02;100093.16;;;6.40;63.95
58775;BME280;44545;47.480;19.024;2023-02-02T12:41:39;100097.53;;;6.27;64.15
58775;BME280;44545;47.480;19.024;2023-02-02T12:48:47;100085.66;;;6.18;65.75
58775;BME280;44545;47.480;19.024;2023-02-02T12:55:41;100086.47;;;6.17;65.42
58775;BME280;44545;47.480;19.024;2023-02-02T13:06:03;100085.19;;;6.37;65.71
58775;BME280;44545;47.480;19.024;2023-02-02T13:12:12;100089.78;;;6.41;66.26
58775;BME280;44545;47.480;19.024;2023-02-02T13:15:19;100099.41;;;6.30;65.11
58775;BME280;44545;47.480;19.024;2023-02-02T13:18:30;100098.13;;;6.23;65.86
58775;BME280;44545;47.480;19.024;2023-02-02T13:21:37;100103.31;;;6.23;66.30
58775;BME280;44545;47.480;19.024;2023-02-02T13:24:42;100091.16;;;6.22;65.48
58775;BME280;44545;47.480;19.024;2023-02-02T13:27:47;100093.16;;;6.26;65.58
58775;BME280;44545;47.480;19.024;2023-02-02T13:30:51;100105.34;;;6.41;66.04
58775;BME280;44545;47.480;19.024;2023-02-02T13:34:05;100107.50;;;6.48;65.62
58775;BME280;44545;47.480;19.024;2023-02-02T13:37:21;100111.41;;;6.41;65.47
58775;BME280;44545;47.480;19.024;2023-02-02T13:43:57;100112.88;;;6.24;65.62
58775;BME280;44545;47.480;19.024;2023-02-02T13:47:08;100106.22;;;6.41;65.98
58775;BME280;44545;47.480;19.024;2023-02-02T13:50:15;100113.59;;;6.62;65.19
58775;BME280;44545;47.480;19.024;2023-02-02T14:00:45;100100.56;;;6.73;65.64
58775;BME280;44545;47.480;19.024;2023-02-02T14:03:54;100112.41;;;6.70;64.29
58775;BME280;44545;47.480;19.024;2023-02-02T14:07:00;100096.78;;;6.82;63.25
58775;BME280;44545;47.480;19.024;2023-02-02T14:13:45;100104.81;;;7.00;64.04
58775;BME280;44545;47.480;19.024;2023-02-02T14:23:49;100114.72;;;6.79;64.05
58775;BME280;44545;47.480;19.024;2023-02-02T14:26:58;100107.63;;;6.49;64.37
58775;BME280;44545;47.480;19.024;2023-02-02T14:30:17;100117.59;;;6.57;65.31
58775;BME280;44545;47.480;19.024;2023-02-02T14:36:24;100124.66;;;6.46;65.28
58775;BME280;44545;47.480;19.024;2023-02-02T14:39:28;100132.13;;;6.41;65.27
58775;BME280;44545;47.480;19.024;2023-02-02T14:46:33;100127.81;;;6.28;67.07
58775;BME280;44545;47.480;19.024;2023-02-02T14:49:37;100137.97;;;6.25;66.44
58775;BME280;44545;47.480;19.024;2023-02-02T14:52:40;100130.28;;;6.27;66.99
58775;BME280;44545;47.480;19.024;2023-02-02T14:56:08;100140.25;;;6.21;66.63
58775;BME280;44545;47.480;19.024;2023-02-02T14:59:36;100144.63;;;6.22;66.75
58775;BME280;44545;47.480;19.024;2023-02-02T15:02:40;100146.66;;;6.01;66.36
58775;BME280;44545;47.480;19.024;2023-02-02T15:05:44;100156.81;;;5.86;67.89
58775;BME280;44545;47.480;19.024;2023-02-02T15:12:43;100157.72;;;5.86;68.80
58775;BME280;44545;47.480;19.024;2023-02-02T15:15:50;100152.44;;;5.60;69.17
58775;BME280;44545;47.480;19.024;2023-02-02T15:19:03;100160.88;;;5.57;69.54
58775;BME280;44545;47.480;19.024;2023-02-02T15:29:05;100163.88;;;5.15;71.37
58775;BME280;44545;47.480;19.024;2023-02-02T15:32:17;100158.28;;;4.97;72.41
58775;BME280;44545;47.480;19.024;2023-02-02T15:35:28;100168.16;;;4.91;72.93
58775;BME280;44545;47.480;19.024;2023-02-02T15:38:37;100186.16;;;4.89;73.39
58775;BME280;44545;47.480;19.024;2023-02-02T15:41:43;100191.53;;;4.92;73.05
58775;BME280;44545;47.480;19.024;2023-02-02T15:44:47;100190.97;;;4.85;73.69
58775;BME280;44545;47.480;19.024;2023-02-02T15:47:49;100188.03;;;4.80;74.26
58775;BME280;44545;47.480;19.024;2023-02-02T15:50:53;100198.34;;;4.68;75.34
58775;BME280;44545;47.480;19.024;2023-02-02T15:53:58;100200.81;;;4.55;76.17
58775;BME280;44545;47.480;19.024;2023-02-02T15:57:01;100205.72;;;4.40;77.01
58775;BME280;44545;47.480;19.024;2023-02-02T16:00:24;100220.63;;;4.32;78.49
58775;BME280;44545;47.480;19.024;2023-02-02T16:03:36;100216.69;;;4.26;78.19
58775;BME280;44545;47.480;19.024;2023-02-02T16:06:39;100219.00;;;4.11;79.11
58775;BME280;44545;47.480;19.024;2023-02-02T16:09:43;100229.25;;;3.99;80.25
58775;BME280;44545;47.480;19.024;2023-02-02T16:12:45;100228.31;;;3.87;80.97
58775;BME280;44545;47.480;19.024;2023-02-02T16:15:59;100224.47;;;3.82;81.84
58775;BME280;44545;47.480;19.024;2023-02-02T16:22:15;100237.25;;;3.58;84.13
58775;BME280;44545;47.480;19.024;2023-02-02T16:25:20;100244.37;;;3.51;84.20
58775;BME280;44545;47.480;19.024;2023-02-02T16:28:25;100251.22;;;3.72;82.86
58775;BME280;44545;47.480;19.024;2023-02-02T16:31:27;100256.78;;;3.66;83.51
